sensor_id;sensor_type;location;lat;lon;timestamp;temperature;humidity
19292;DHT22;9779;51.756;7.450;2022-11-13T00:00:18;6.60;99.90
19292;DHT22;9779;51.756;7.450;2022-11-13T00:02:43;6.60;99.90
19292;DHT22;9779;51.756;7.450;2022-11-13T00:05:09;6.50;99.90
19292;DHT22;9779;51.756;7.450;2022-11-13T00:07:34;6.50;99.90
19292;DHT22;9779;51.756;7.450;2022-11-13T00:10:00;6.50;99.90
19292;DHT22;9779;51.756;7.450;2022-11-13T00:12:27;6.50;99.90
19292;DHT22;9779;51.756;7.450;2022-11-13T00:14:53;6.50;99.90
19292;DHT22;9779;51.756;7.450;2022-11-13T00:17:18;6.40;99.90
19292;DHT22;9779;51.756;7.450;2022-11-13T00:19:44;6.40;99.90
19292;DHT22;9779;51.756;7.450;2022-11-13T00:22:09;6.40;99.90
19292;DHT22;9779;51.756;7.450;2022-11-13T00:24:35;6.40;99.90
19292;DHT22;9779;51.756;7.450;2022-11-13T00:27:00;6.40;99.90
19292;DHT22;9779;51.756;7.450;2022-11-13T00:29:26;6.40;99.90
19292;DHT22;9779;51.756;7.450;2022-11-13T00:31:51;6.40;99.90
19292;DHT22;9779;51.756;7.450;2022-11-13T00:34:17;6.40;99.90
19292;DHT22;9779;51.756;7.450;2022-11-13T00:36:42;6.30;99.90
19292;DHT22;9779;51.756;7.450;2022-11-13T00:39:08;6.30;99.90
19292;DHT22;9779;51.756;7.450;2022-11-13T00:41:33;6.30;99.90
19292;DHT22;9779;51.756;7.450;2022-11-13T00:43:59;6.40;99.90
19292;DHT22;9779;51.756;7.450;2022-11-13T00:46:24;6.40;99.90
19292;DHT22;9779;51.756;7.450;2022-11-13T00:48:50;6.30;99.90
19292;DHT22;9779;51.756;7.450;2022-11-13T00:51:15;6.30;99.90
19292;DHT22;9779;51.756;7.450;2022-11-13T00:53:41;6.30;99.90
19292;DHT22;9779;51.756;7.450;2022-11-13T00:56:06;6.30;99.90
19292;DHT22;9779;51.756;7.450;2022-11-13T00:58:32;6.30;99.90
19292;DHT22;9779;51.756;7.450;2022-11-13T01:01:27;6.20;99.90
19292;DHT22;9779;51.756;7.450;2022-11-13T01:03:53;6.20;99.90
19292;DHT22;9779;51.756;7.450;2022-11-13T01:06:21;6.20;99.90
19292;DHT22;9779;51.756;7.450;2022-11-13T01:08:48;6.20;99.90
19292;DHT22;9779;51.756;7.450;2022-11-13T01:11:18;6.10;99.90
19292;DHT22;9779;51.756;7.450;2022-11-13T01:13:45;6.10;99.90
19292;DHT22;9779;51.756;7.450;2022-11-13T01:16:12;6.10;99.90
19292;DHT22;9779;51.756;7.450;2022-11-13T01:18:39;6.10;99.90
19292;DHT22;9779;51.756;7.450;2022-11-13T01:21:08;6.10;99.90
19292;DHT22;9779;51.756;7.450;2022-11-13T01:23:35;6.10;99.90
19292;DHT22;9779;51.756;7.450;2022-11-13T01:26:09;6.10;99.90
19292;DHT22;9779;51.756;7.450;2022-11-13T01:28:35;6.00;99.90
19292;DHT22;9779;51.756;7.450;2022-11-13T01:31:04;6.00;99.90
19292;DHT22;9779;51.756;7.450;2022-11-13T01:33:30;6.00;99.90
19292;DHT22;9779;51.756;7.450;2022-11-13T01:36:09;6.00;99.90
19292;DHT22;9779;51.756;7.450;2022-11-13T01:38:35;6.00;99.90
19292;DHT22;9779;51.756;7.450;2022-11-13T01:41:00;6.00;99.90
19292;DHT22;9779;51.756;7.450;2022-11-13T01:43:29;5.90;99.90
19292;DHT22;9779;51.756;7.450;2022-11-13T01:48:35;5.90;99.90
19292;DHT22;9779;51.756;7.450;2022-11-13T01:51:03;5.90;99.90
19292;DHT22;9779;51.756;7.450;2022-11-13T01:53:32;5.90;99.90
19292;DHT22;9779;51.756;7.450;2022-11-13T01:55:58;5.80;99.90
19292;DHT22;9779;51.756;7.450;2022-11-13T01:58:23;5.80;99.90
19292;DHT22;9779;51.756;7.450;2022-11-13T02:00:49;5.80;99.90
19292;DHT22;9779;51.756;7.450;2022-11-13T02:03:15;5.80;99.90
19292;DHT22;9779;51.756;7.450;2022-11-13T02:05:40;5.80;99.90
19292;DHT22;9779;51.756;7.450;2022-11-13T02:08:06;5.80;99.90
19292;DHT22;9779;51.756;7.450;2022-11-13T02:10:31;5.80;99.90
19292;DHT22;9779;51.756;7.450;2022-11-13T02:12:57;5.80;99.90
19292;DHT22;9779;51.756;7.450;2022-11-13T02:15:24;5.80;99.90
19292;DHT22;9779;51.756;7.450;2022-11-13T02:17:54;5.80;99.90
19292;DHT22;9779;51.756;7.450;2022-11-13T02:20:34;5.80;99.90
19292;DHT22;9779;51.756;7.450;2022-11-13T02:23:16;5.80;99.90
19292;DHT22;9779;51.756;7.450;2022-11-13T02:25:46;5.80;99.90
19292;DHT22;9779;51.756;7.450;2022-11-13T02:28:13;5.70;99.90
19292;DHT22;9779;51.756;7.450;2022-11-13T02:30:38;5.70;99.90
19292;DHT22;9779;51.756;7.450;2022-11-13T02:33:25;5.70;99.90
19292;DHT22;9779;51.756;7.450;2022-11-13T02:35:51;5.70;99.90
19292;DHT22;9779;51.756;7.450;2022-11-13T02:38:17;5.60;99.90
19292;DHT22;9779;51.756;7.450;2022-11-13T02:40:43;5.60;99.90
19292;DHT22;9779;51.756;7.450;2022-11-13T02:43:08;5.60;99.90
19292;DHT22;9779;51.756;7.450;2022-11-13T02:45:34;5.60;99.90
19292;DHT22;9779;51.756;7.450;2022-11-13T02:47:59;5.60;99.90
19292;DHT22;9779;51.756;7.450;2022-11-13T02:50:25;5.60;99.90
19292;DHT22;9779;51.756;7.450;2022-11-13T02:52:51;5.50;99.90
19292;DHT22;9779;51.756;7.450;2022-11-13T02:55:16;5.50;99.90
19292;DHT22;9779;51.756;7.450;2022-11-13T02:57:42;5.50;99.90
19292;DHT22;9779;51.756;7.450;2022-11-13T03:00:08;5.50;99.90
19292;DHT22;9779;51.756;7.450;2022-11-13T03:02:34;5.40;99.90
19292;DHT22;9779;51.756;7.450;2022-11-13T03:04:59;5.40;99.90
19292;DHT22;9779;51.756;7.450;2022-11-13T03:07:25;5.40;99.90
19292;DHT22;9779;51.756;7.450;2022-11-13T03:09:50;5.40;99.90
19292;DHT22;9779;51.756;7.450;2022-11-13T03:12:16;5.40;99.90
19292;DHT22;9779;51.756;7.450;2022-11-13T03:14:41;5.40;99.90
19292;DHT22;9779;51.756;7.450;2022-11-13T03:17:07;5.40;99.90
19292;DHT22;9779;51.756;7.450;2022-11-13T03:19:32;5.30;99.90
19292;DHT22;9779;51.756;7.450;2022-11-13T03:21:58;5.30;99.90
19292;DHT22;9779;51.756;7.450;2022-11-13T03:24:23;5.30;99.90
19292;DHT22;9779;51.756;7.450;2022-11-13T03:26:49;5.20;99.90
19292;DHT22;9779;51.756;7.450;2022-11-13T03:29:15;5.30;99.90
19292;DHT22;9779;51.756;7.450;2022-11-13T03:31:40;5.20;99.90
19292;DHT22;9779;51.756;7.450;2022-11-13T03:34:06;5.20;99.90
19292;DHT22;9779;51.756;7.450;2022-11-13T03:36:31;5.20;99.90
19292;DHT22;9779;51.756;7.450;2022-11-13T03:38:57;5.20;99.90
19292;DHT22;9779;51.756;7.450;2022-11-13T03:41:23;5.20;99.90
19292;DHT22;9779;51.756;7.450;2022-11-13T03:43:48;5.10;99.90
19292;DHT22;9779;51.756;7.450;2022-11-13T03:46:14;5.10;99.90
19292;DHT22;9779;51.756;7.450;2022-11-13T03:48:39;5.10;99.90
19292;DHT22;9779;51.756;7.450;2022-11-13T03:51:05;5.00;99.90
19292;DHT22;9779;51.756;7.450;2022-11-13T03:53:31;5.10;99.90
19292;DHT22;9779;51.756;7.450;2022-11-13T03:55:57;5.00;99.90
19292;DHT22;9779;51.756;7.450;2022-11-13T03:58:23;5.00;99.90
19292;DHT22;9779;51.756;7.450;2022-11-13T04:00:48;4.90;99.90
19292;DHT22;9779;51.756;7.450;2022-11-13T04:03:14;4.90;99.90
19292;DHT22;9779;51.756;7.450;2022-11-13T04:05:41;4.90;99.90
19292;DHT22;9779;51.756;7.450;2022-11-13T04:08:07;4.90;99.90
19292;DHT22;9779;51.756;7.450;2022-11-13T04:10:33;4.90;99.90
19292;DHT22;9779;51.756;7.450;2022-11-13T04:12:59;4.80;99.90
19292;DHT22;9779;51.756;7.450;2022-11-13T04:15:24;4.80;99.90
19292;DHT22;9779;51.756;7.450;2022-11-13T04:17:50;4.80;99.90
19292;DHT22;9779;51.756;7.450;2022-11-13T04:20:16;4.80;99.90
19292;DHT22;9779;51.756;7.450;2022-11-13T04:22:41;4.80;99.90
19292;DHT22;9779;51.756;7.450;2022-11-13T04:25:11;4.80;99.90
19292;DHT22;9779;51.756;7.450;2022-11-13T04:27:36;4.70;99.90
19292;DHT22;9779;51.756;7.450;2022-11-13T04:30:03;4.70;99.90
19292;DHT22;9779;51.756;7.450;2022-11-13T04:32:30;4.70;99.90
19292;DHT22;9779;51.756;7.450;2022-11-13T04:34:56;4.60;99.90
19292;DHT22;9779;51.756;7.450;2022-11-13T04:37:21;4.60;99.90
19292;DHT22;9779;51.756;7.450;2022-11-13T04:39:47;4.60;99.90
19292;DHT22;9779;51.756;7.450;2022-11-13T04:42:12;4.60;99.90
19292;DHT22;9779;51.756;7.450;2022-11-13T04:44:56;4.50;99.90
19292;DHT22;9779;51.756;7.450;2022-11-13T04:47:22;4.50;99.90
19292;DHT22;9779;51.756;7.450;2022-11-13T04:49:48;4.50;99.90
19292;DHT22;9779;51.756;7.450;2022-11-13T04:52:13;4.50;99.90
19292;DHT22;9779;51.756;7.450;2022-11-13T04:54:39;4.50;99.90
19292;DHT22;9779;51.756;7.450;2022-11-13T04:57:04;4.50;99.90
19292;DHT22;9779;51.756;7.450;2022-11-13T04:59:30;4.50;99.90
19292;DHT22;9779;51.756;7.450;2022-11-13T05:01:56;4.40;99.90
19292;DHT22;9779;51.756;7.450;2022-11-13T05:04:21;4.40;99.90
19292;DHT22;9779;51.756;7.450;2022-11-13T05:06:47;4.40;99.90
19292;DHT22;9779;51.756;7.450;2022-11-13T05:09:13;4.40;99.90
19292;DHT22;9779;51.756;7.450;2022-11-13T05:11:38;4.40;99.90
19292;DHT22;9779;51.756;7.450;2022-11-13T05:14:04;4.30;99.90
19292;DHT22;9779;51.756;7.450;2022-11-13T05:16:30;4.30;99.90
19292;DHT22;9779;51.756;7.450;2022-11-13T05:18:58;4.30;99.90
19292;DHT22;9779;51.756;7.450;2022-11-13T05:21:24;4.30;99.90
19292;DHT22;9779;51.756;7.450;2022-11-13T05:23:50;4.30;99.90
19292;DHT22;9779;51.756;7.450;2022-11-13T05:26:15;4.30;99.90
19292;DHT22;9779;51.756;7.450;2022-11-13T05:28:41;4.30;99.90
19292;DHT22;9779;51.756;7.450;2022-11-13T05:31:12;4.20;99.90
19292;DHT22;9779;51.756;7.450;2022-11-13T05:33:39;4.30;99.90
19292;DHT22;9779;51.756;7.450;2022-11-13T05:36:08;4.20;99.90
19292;DHT22;9779;51.756;7.450;2022-11-13T05:38:34;4.20;99.90
19292;DHT22;9779;51.756;7.450;2022-11-13T05:41:14;4.20;99.90
19292;DHT22;9779;51.756;7.450;2022-11-13T05:43:41;4.10;99.90
19292;DHT22;9779;51.756;7.450;2022-11-13T05:46:12;4.10;99.90
19292;DHT22;9779;51.756;7.450;2022-11-13T05:48:39;4.10;99.90
19292;DHT22;9779;51.756;7.450;2022-11-13T05:51:08;4.10;99.90
19292;DHT22;9779;51.756;7.450;2022-11-13T05:53:34;4.00;99.90
19292;DHT22;9779;51.756;7.450;2022-11-13T05:56:02;4.00;99.90
19292;DHT22;9779;51.756;7.450;2022-11-13T05:58:29;4.00;99.90
19292;DHT22;9779;51.756;7.450;2022-11-13T06:01:08;4.00;99.90
19292;DHT22;9779;51.756;7.450;2022-11-13T06:03:34;4.00;99.90
19292;DHT22;9779;51.756;7.450;2022-11-13T06:05:59;4.00;99.90
19292;DHT22;9779;51.756;7.450;2022-11-13T06:08:25;3.90;99.90
19292;DHT22;9779;51.756;7.450;2022-11-13T06:10:51;3.90;99.90
19292;DHT22;9779;51.756;7.450;2022-11-13T06:13:17;3.90;99.90
19292;DHT22;9779;51.756;7.450;2022-11-13T06:15:43;3.90;99.90
19292;DHT22;9779;51.756;7.450;2022-11-13T06:18:08;3.80;99.90
19292;DHT22;9779;51.756;7.450;2022-11-13T06:20:35;3.80;99.90
19292;DHT22;9779;51.756;7.450;2022-11-13T06:23:01;3.80;99.90
19292;DHT22;9779;51.756;7.450;2022-11-13T06:25:27;3.80;99.90
19292;DHT22;9779;51.756;7.450;2022-11-13T06:27:53;3.80;99.90
19292;DHT22;9779;51.756;7.450;2022-11-13T06:30:19;3.80;99.90
19292;DHT22;9779;51.756;7.450;2022-11-13T06:32:51;3.80;99.90
19292;DHT22;9779;51.756;7.450;2022-11-13T06:35:17;3.70;99.90
19292;DHT22;9779;51.756;7.450;2022-11-13T06:37:43;3.80;99.90
19292;DHT22;9779;51.756;7.450;2022-11-13T06:40:09;3.70;99.90
19292;DHT22;9779;51.756;7.450;2022-11-13T06:42:35;3.70;99.90
19292;DHT22;9779;51.756;7.450;2022-11-13T06:45:00;3.70;99.90
19292;DHT22;9779;51.756;7.450;2022-11-13T06:47:27;3.70;99.90
19292;DHT22;9779;51.756;7.450;2022-11-13T06:49:52;3.70;99.90
19292;DHT22;9779;51.756;7.450;2022-11-13T06:52:18;3.70;99.90
19292;DHT22;9779;51.756;7.450;2022-11-13T06:54:44;3.70;99.90
19292;DHT22;9779;51.756;7.450;2022-11-13T06:57:09;3.60;99.90
19292;DHT22;9779;51.756;7.450;2022-11-13T06:59:35;3.60;99.90
19292;DHT22;9779;51.756;7.450;2022-11-13T07:02:01;3.60;99.90
19292;DHT22;9779;51.756;7.450;2022-11-13T07:04:27;3.60;99.90
19292;DHT22;9779;51.756;7.450;2022-11-13T07:06:52;3.60;99.90
19292;DHT22;9779;51.756;7.450;2022-11-13T07:09:18;3.60;99.90
19292;DHT22;9779;51.756;7.450;2022-11-13T07:11:43;3.60;99.90
19292;DHT22;9779;51.756;7.450;2022-11-13T07:14:12;3.60;99.90
19292;DHT22;9779;51.756;7.450;2022-11-13T07:16:38;3.60;99.90
19292;DHT22;9779;51.756;7.450;2022-11-13T07:19:04;3.60;99.90
19292;DHT22;9779;51.756;7.450;2022-11-13T07:21:30;3.60;99.90
19292;DHT22;9779;51.756;7.450;2022-11-13T07:23:55;3.60;99.90
19292;DHT22;9779;51.756;7.450;2022-11-13T07:26:21;3.60;99.90
19292;DHT22;9779;51.756;7.450;2022-11-13T07:28:48;3.60;99.90
19292;DHT22;9779;51.756;7.450;2022-11-13T07:31:15;3.60;99.90
19292;DHT22;9779;51.756;7.450;2022-11-13T07:33:41;3.60;99.90
19292;DHT22;9779;51.756;7.450;2022-11-13T07:36:08;3.50;99.90
19292;DHT22;9779;51.756;7.450;2022-11-13T07:38:34;3.60;99.90
19292;DHT22;9779;51.756;7.450;2022-11-13T07:41:00;3.60;99.90
19292;DHT22;9779;51.756;7.450;2022-11-13T07:43:25;3.60;99.90
19292;DHT22;9779;51.756;7.450;2022-11-13T07:45:51;3.60;99.90
19292;DHT22;9779;51.756;7.450;2022-11-13T07:48:20;3.60;99.90
19292;DHT22;9779;51.756;7.450;2022-11-13T07:50:45;3.60;99.90
19292;DHT22;9779;51.756;7.450;2022-11-13T07:53:11;3.60;99.90
19292;DHT22;9779;51.756;7.450;2022-11-13T07:55:37;3.60;99.90
19292;DHT22;9779;51.756;7.450;2022-11-13T07:58:04;3.70;99.90
19292;DHT22;9779;51.756;7.450;2022-11-13T08:00:31;3.70;99.90
19292;DHT22;9779;51.756;7.450;2022-11-13T08:02:58;3.70;99.90
19292;DHT22;9779;51.756;7.450;2022-11-13T08:05:23;3.70;99.90
19292;DHT22;9779;51.756;7.450;2022-11-13T08:07:50;3.70;99.90
19292;DHT22;9779;51.756;7.450;2022-11-13T08:10:17;3.80;99.90
19292;DHT22;9779;51.756;7.450;2022-11-13T08:12:43;3.80;99.90
19292;DHT22;9779;51.756;7.450;2022-11-13T08:15:09;3.80;99.90
19292;DHT22;9779;51.756;7.450;2022-11-13T08:17:34;3.80;99.90
19292;DHT22;9779;51.756;7.450;2022-11-13T08:20:00;3.90;99.90
19292;DHT22;9779;51.756;7.450;2022-11-13T08:22:26;3.90;99.90
19292;DHT22;9779;51.756;7.450;2022-11-13T08:24:51;3.90;99.90
19292;DHT22;9779;51.756;7.450;2022-11-13T08:27:19;4.00;99.90
19292;DHT22;9779;51.756;7.450;2022-11-13T08:29:45;4.00;99.90
19292;DHT22;9779;51.756;7.450;2022-11-13T08:32:16;4.00;99.90
19292;DHT22;9779;51.756;7.450;2022-11-13T08:34:42;4.10;99.90
19292;DHT22;9779;51.756;7.450;2022-11-13T08:37:08;4.10;99.90
19292;DHT22;9779;51.756;7.450;2022-11-13T08:39:34;4.20;99.90
19292;DHT22;9779;51.756;7.450;2022-11-13T08:42:00;4.20;99.90
19292;DHT22;9779;51.756;7.450;2022-11-13T08:44:26;4.30;99.90
19292;DHT22;9779;51.756;7.450;2022-11-13T08:46:51;4.30;99.90
19292;DHT22;9779;51.756;7.450;2022-11-13T08:49:17;4.30;99.90
19292;DHT22;9779;51.756;7.450;2022-11-13T08:51:43;4.40;99.90
19292;DHT22;9779;51.756;7.450;2022-11-13T08:54:08;4.40;99.90
19292;DHT22;9779;51.756;7.450;2022-11-13T08:56:34;4.50;99.90
19292;DHT22;9779;51.756;7.450;2022-11-13T08:58:59;4.60;99.90
19292;DHT22;9779;51.756;7.450;2022-11-13T09:01:25;4.60;99.90
19292;DHT22;9779;51.756;7.450;2022-11-13T09:03:50;4.60;99.90
19292;DHT22;9779;51.756;7.450;2022-11-13T09:06:16;4.70;99.90
19292;DHT22;9779;51.756;7.450;2022-11-13T09:08:41;4.70;99.90
19292;DHT22;9779;51.756;7.450;2022-11-13T09:11:07;4.80;99.90
19292;DHT22;9779;51.756;7.450;2022-11-13T09:13:33;4.80;99.90
19292;DHT22;9779;51.756;7.450;2022-11-13T09:16:00;4.90;99.90
19292;DHT22;9779;51.756;7.450;2022-11-13T09:18:27;5.10;99.90
19292;DHT22;9779;51.756;7.450;2022-11-13T09:20:53;5.10;99.90
19292;DHT22;9779;51.756;7.450;2022-11-13T09:23:19;5.20;99.90
19292;DHT22;9779;51.756;7.450;2022-11-13T09:25:45;5.30;99.90
19292;DHT22;9779;51.756;7.450;2022-11-13T09:28:10;5.40;99.90
19292;DHT22;9779;51.756;7.450;2022-11-13T09:30:38;5.50;99.90
19292;DHT22;9779;51.756;7.450;2022-11-13T09:33:04;5.60;99.90
19292;DHT22;9779;51.756;7.450;2022-11-13T09:35:30;5.70;99.90
19292;DHT22;9779;51.756;7.450;2022-11-13T09:38:06;5.80;99.90
19292;DHT22;9779;51.756;7.450;2022-11-13T09:40:41;5.90;99.90
19292;DHT22;9779;51.756;7.450;2022-11-13T09:43:21;5.90;99.90
19292;DHT22;9779;51.756;7.450;2022-11-13T09:45:48;6.00;99.90
19292;DHT22;9779;51.756;7.450;2022-11-13T09:48:35;6.10;99.90
19292;DHT22;9779;51.756;7.450;2022-11-13T09:51:06;6.30;99.90
19292;DHT22;9779;51.756;7.450;2022-11-13T09:53:35;6.50;99.90
19292;DHT22;9779;51.756;7.450;2022-11-13T09:56:13;6.70;99.90
19292;DHT22;9779;51.756;7.450;2022-11-13T10:02:09;6.90;99.90
19292;DHT22;9779;51.756;7.450;2022-11-13T10:05:03;7.00;99.90
19292;DHT22;9779;51.756;7.450;2022-11-13T10:13:11;7.40;99.90
19292;DHT22;9779;51.756;7.450;2022-11-13T10:15:42;7.50;99.90
19292;DHT22;9779;51.756;7.450;2022-11-13T10:18:22;7.60;99.90
19292;DHT22;9779;51.756;7.450;2022-11-13T10:20:53;7.60;99.90
19292;DHT22;9779;51.756;7.450;2022-11-13T10:23:36;7.60;99.90
19292;DHT22;9779;51.756;7.450;2022-11-13T10:26:19;7.80;99.90
19292;DHT22;9779;51.756;7.450;2022-11-13T10:28:45;7.80;99.90
19292;DHT22;9779;51.756;7.450;2022-11-13T10:31:11;7.80;99.90
19292;DHT22;9779;51.756;7.450;2022-11-13T10:33:37;7.80;99.90
19292;DHT22;9779;51.756;7.450;2022-11-13T10:41:11;7.90;99.90
19292;DHT22;9779;51.756;7.450;2022-11-13T10:43:51;8.10;99.90
19292;DHT22;9779;51.756;7.450;2022-11-13T10:46:22;8.10;99.90
19292;DHT22;9779;51.756;7.450;2022-11-13T10:48:49;8.20;99.90
19292;DHT22;9779;51.756;7.450;2022-11-13T10:51:22;8.20;99.90
19292;DHT22;9779;51.756;7.450;2022-11-13T10:53:49;8.30;99.90
19292;DHT22;9779;51.756;7.450;2022-11-13T10:59:09;9.10;99.90
19292;DHT22;9779;51.756;7.450;2022-11-13T11:01:35;9.30;99.90
19292;DHT22;9779;51.756;7.450;2022-11-13T11:04:22;9.10;99.90
19292;DHT22;9779;51.756;7.450;2022-11-13T11:06:52;9.10;99.90
19292;DHT22;9779;51.756;7.450;2022-11-13T11:09:27;9.10;99.90
19292;DHT22;9779;51.756;7.450;2022-11-13T11:17:41;9.30;99.90
19292;DHT22;9779;51.756;7.450;2022-11-13T11:23:06;9.50;99.90
19292;DHT22;9779;51.756;7.450;2022-11-13T11:25:38;9.60;99.90
19292;DHT22;9779;51.756;7.450;2022-11-13T11:28:14;9.70;99.90
19292;DHT22;9779;51.756;7.450;2022-11-13T11:30:54;9.90;99.90
19292;DHT22;9779;51.756;7.450;2022-11-13T11:33:46;10.00;99.90
19292;DHT22;9779;51.756;7.450;2022-11-13T11:36:24;10.10;99.90
19292;DHT22;9779;51.756;7.450;2022-11-13T11:41:42;10.40;99.90
19292;DHT22;9779;51.756;7.450;2022-11-13T11:44:26;10.50;99.90
19292;DHT22;9779;51.756;7.450;2022-11-13T11:46:53;10.60;99.90
19292;DHT22;9779;51.756;7.450;2022-11-13T11:49:23;10.70;99.90
19292;DHT22;9779;51.756;7.450;2022-11-13T11:54:42;10.90;99.90
19292;DHT22;9779;51.756;7.450;2022-11-13T11:57:34;11.00;99.90
19292;DHT22;9779;51.756;7.450;2022-11-13T12:00:05;11.20;99.90
19292;DHT22;9779;51.756;7.450;2022-11-13T12:05:38;11.40;99.90
19292;DHT22;9779;51.756;7.450;2022-11-13T12:08:21;11.50;99.90
19292;DHT22;9779;51.756;7.450;2022-11-13T12:16:26;11.90;99.90
19292;DHT22;9779;51.756;7.450;2022-11-13T12:19:02;12.00;99.90
19292;DHT22;9779;51.756;7.450;2022-11-13T12:30:07;12.50;99.90
19292;DHT22;9779;51.756;7.450;2022-11-13T12:32:37;12.60;99.90
19292;DHT22;9779;51.756;7.450;2022-11-13T12:35:09;12.70;99.90
19292;DHT22;9779;51.756;7.450;2022-11-13T12:40:26;12.90;99.90
19292;DHT22;9779;51.756;7.450;2022-11-13T12:48:09;13.20;99.90
19292;DHT22;9779;51.756;7.450;2022-11-13T12:50:56;13.20;99.90
19292;DHT22;9779;51.756;7.450;2022-11-13T12:53:25;13.30;99.90
19292;DHT22;9779;51.756;7.450;2022-11-13T12:56:00;13.40;99.90
19292;DHT22;9779;51.756;7.450;2022-11-13T12:58:30;13.60;99.90
19292;DHT22;9779;51.756;7.450;2022-11-13T13:01:02;13.80;99.90
19292;DHT22;9779;51.756;7.450;2022-11-13T13:15:07;14.60;99.90
19292;DHT22;9779;51.756;7.450;2022-11-13T13:17:35;14.70;99.90
19292;DHT22;9779;51.756;7.450;2022-11-13T13:20:27;14.90;99.90
19292;DHT22;9779;51.756;7.450;2022-11-13T13:22:56;15.00;99.90
19292;DHT22;9779;51.756;7.450;2022-11-13T13:25:33;15.20;99.90
19292;DHT22;9779;51.756;7.450;2022-11-13T13:28:02;15.40;99.90
19292;DHT22;9779;51.756;7.450;2022-11-13T13:30:43;15.60;99.90
19292;DHT22;9779;51.756;7.450;2022-11-13T13:33:36;15.80;99.90
19292;DHT22;9779;51.756;7.450;2022-11-13T13:39:18;16.30;99.90
19292;DHT22;9779;51.756;7.450;2022-11-13T13:41:57;16.40;99.90
19292;DHT22;9779;51.756;7.450;2022-11-13T13:47:28;16.90;99.90
19292;DHT22;9779;51.756;7.450;2022-11-13T13:49:56;16.90;99.90
19292;DHT22;9779;51.756;7.450;2022-11-13T13:52:32;17.10;99.90
19292;DHT22;9779;51.756;7.450;2022-11-13T13:55:01;17.20;99.90
19292;DHT22;9779;51.756;7.450;2022-11-13T13:57:28;17.40;99.90
19292;DHT22;9779;51.756;7.450;2022-11-13T13:59:54;17.50;99.90
19292;DHT22;9779;51.756;7.450;2022-11-13T14:02:21;17.60;99.90
19292;DHT22;9779;51.756;7.450;2022-11-13T14:04:50;17.80;99.90
19292;DHT22;9779;51.756;7.450;2022-11-13T14:07:24;17.90;99.90
19292;DHT22;9779;51.756;7.450;2022-11-13T14:10:07;18.10;99.90
19292;DHT22;9779;51.756;7.450;2022-11-13T14:12:43;18.10;99.90
19292;DHT22;9779;51.756;7.450;2022-11-13T14:17:46;17.90;99.90
19292;DHT22;9779;51.756;7.450;2022-11-13T14:20:12;17.90;99.90
19292;DHT22;9779;51.756;7.450;2022-11-13T14:22:38;17.70;99.90
19292;DHT22;9779;51.756;7.450;2022-11-13T14:25:05;17.50;99.90
19292;DHT22;9779;51.756;7.450;2022-11-13T14:27:38;17.30;99.90
19292;DHT22;9779;51.756;7.450;2022-11-13T14:30:04;17.30;99.90
19292;DHT22;9779;51.756;7.450;2022-11-13T14:32:38;17.30;99.90
19292;DHT22;9779;51.756;7.450;2022-11-13T14:35:05;17.70;99.90
19292;DHT22;9779;51.756;7.450;2022-11-13T14:37:38;17.90;99.90
19292;DHT22;9779;51.756;7.450;2022-11-13T14:40:27;17.80;99.90
19292;DHT22;9779;51.756;7.450;2022-11-13T14:43:00;18.30;99.90
19292;DHT22;9779;51.756;7.450;2022-11-13T14:45:28;18.40;99.90
19292;DHT22;9779;51.756;7.450;2022-11-13T14:53:04;17.50;99.90
19292;DHT22;9779;51.756;7.450;2022-11-13T14:55:32;17.20;99.90
19292;DHT22;9779;51.756;7.450;2022-11-13T14:57:58;16.90;99.90
19292;DHT22;9779;51.756;7.450;2022-11-13T15:00:33;16.70;99.90
19292;DHT22;9779;51.756;7.450;2022-11-13T15:03:00;16.50;99.90
19292;DHT22;9779;51.756;7.450;2022-11-13T15:05:26;16.30;99.90
19292;DHT22;9779;51.756;7.450;2022-11-13T15:07:53;16.20;99.90
19292;DHT22;9779;51.756;7.450;2022-11-13T15:10:22;16.00;99.90
19292;DHT22;9779;51.756;7.450;2022-11-13T15:12:48;15.90;99.90
19292;DHT22;9779;51.756;7.450;2022-11-13T15:15:17;15.70;99.90
19292;DHT22;9779;51.756;7.450;2022-11-13T15:17:44;15.60;99.90
19292;DHT22;9779;51.756;7.450;2022-11-13T15:20:30;15.50;99.90
19292;DHT22;9779;51.756;7.450;2022-11-13T15:22:57;15.40;99.90
19292;DHT22;9779;51.756;7.450;2022-11-13T15:25:24;15.30;99.90
19292;DHT22;9779;51.756;7.450;2022-11-13T15:27:50;15.30;99.90
19292;DHT22;9779;51.756;7.450;2022-11-13T15:30:17;15.20;99.90
19292;DHT22;9779;51.756;7.450;2022-11-13T15:32:43;15.10;99.90
19292;DHT22;9779;51.756;7.450;2022-11-13T15:35:14;14.90;99.90
19292;DHT22;9779;51.756;7.450;2022-11-13T15:37:39;14.70;99.90
19292;DHT22;9779;51.756;7.450;2022-11-13T15:40:05;14.70;99.90
19292;DHT22;9779;51.756;7.450;2022-11-13T15:42:33;14.50;99.90
19292;DHT22;9779;51.756;7.450;2022-11-13T15:44:59;14.40;99.90
19292;DHT22;9779;51.756;7.450;2022-11-13T15:47:26;14.30;99.90
19292;DHT22;9779;51.756;7.450;2022-11-13T15:49:51;14.30;99.90
19292;DHT22;9779;51.756;7.450;2022-11-13T15:52:17;14.20;99.90
19292;DHT22;9779;51.756;7.450;2022-11-13T15:54:44;14.10;99.90
19292;DHT22;9779;51.756;7.450;2022-11-13T15:57:21;14.00;99.90
19292;DHT22;9779;51.756;7.450;2022-11-13T15:59:47;13.90;99.90
19292;DHT22;9779;51.756;7.450;2022-11-13T16:02:12;13.80;99.90
19292;DHT22;9779;51.756;7.450;2022-11-13T16:04:38;13.70;99.90
19292;DHT22;9779;51.756;7.450;2022-11-13T16:07:25;13.60;99.90
19292;DHT22;9779;51.756;7.450;2022-11-13T16:09:51;13.40;99.90
19292;DHT22;9779;51.756;7.450;2022-11-13T16:12:16;13.40;99.90
19292;DHT22;9779;51.756;7.450;2022-11-13T16:14:42;13.30;99.90
19292;DHT22;9779;51.756;7.450;2022-11-13T16:17:16;13.20;99.90
19292;DHT22;9779;51.756;7.450;2022-11-13T16:19:47;13.20;99.90
19292;DHT22;9779;51.756;7.450;2022-11-13T16:22:18;13.10;99.90
19292;DHT22;9779;51.756;7.450;2022-11-13T16:24:44;13.00;99.90
19292;DHT22;9779;51.756;7.450;2022-11-13T16:27:14;12.90;99.90
19292;DHT22;9779;51.756;7.450;2022-11-13T16:29:40;12.80;99.90
19292;DHT22;9779;51.756;7.450;2022-11-13T16:32:14;12.70;99.90
19292;DHT22;9779;51.756;7.450;2022-11-13T16:34:43;12.60;99.90
19292;DHT22;9779;51.756;7.450;2022-11-13T16:37:17;12.60;99.90
19292;DHT22;9779;51.756;7.450;2022-11-13T16:39:43;12.60;99.90
19292;DHT22;9779;51.756;7.450;2022-11-13T16:42:10;12.60;99.90
19292;DHT22;9779;51.756;7.450;2022-11-13T16:44:36;12.50;99.90
19292;DHT22;9779;51.756;7.450;2022-11-13T16:47:04;12.40;99.90
19292;DHT22;9779;51.756;7.450;2022-11-13T16:49:29;12.40;99.90
19292;DHT22;9779;51.756;7.450;2022-11-13T16:51:55;12.30;99.90
19292;DHT22;9779;51.756;7.450;2022-11-13T16:54:20;12.20;99.90
19292;DHT22;9779;51.756;7.450;2022-11-13T16:56:46;12.10;99.90
19292;DHT22;9779;51.756;7.450;2022-11-13T16:59:12;12.10;99.90
19292;DHT22;9779;51.756;7.450;2022-11-13T17:01:37;12.00;99.90
19292;DHT22;9779;51.756;7.450;2022-11-13T17:04:03;11.90;99.90
19292;DHT22;9779;51.756;7.450;2022-11-13T17:06:31;11.90;99.90
19292;DHT22;9779;51.756;7.450;2022-11-13T17:08:58;11.80;99.90
19292;DHT22;9779;51.756;7.450;2022-11-13T17:11:25;11.70;99.90
19292;DHT22;9779;51.756;7.450;2022-11-13T17:13:56;11.70;99.90
19292;DHT22;9779;51.756;7.450;2022-11-13T17:16:23;11.60;99.90
19292;DHT22;9779;51.756;7.450;2022-11-13T17:18:50;11.50;99.90
19292;DHT22;9779;51.756;7.450;2022-11-13T17:21:18;11.50;99.90
19292;DHT22;9779;51.756;7.450;2022-11-13T17:23:44;11.40;99.90
19292;DHT22;9779;51.756;7.450;2022-11-13T17:26:10;11.30;99.90
19292;DHT22;9779;51.756;7.450;2022-11-13T17:28:36;11.30;99.90